sensor_id;sensor_type;location;lat;lon;timestamp;temperature;humidity
59961;DHT22;55902;-37.980;-63.602;2023-08-21T00:00:46;7.40;99.90
59961;DHT22;55902;-37.980;-63.602;2023-08-21T00:03:16;7.40;99.90
59961;DHT22;55902;-37.980;-63.602;2023-08-21T00:05:43;7.40;99.90
59961;DHT22;55902;-37.980;-63.602;2023-08-21T00:08:10;7.40;99.90
59961;DHT22;55902;-37.980;-63.602;2023-08-21T00:10:40;7.40;99.90
59961;DHT22;55902;-37.980;-63.602;2023-08-21T00:13:07;7.30;99.90
59961;DHT22;55902;-37.980;-63.602;2023-08-21T00:15:34;7.30;99.90
59961;DHT22;55902;-37.980;-63.602;2023-08-21T00:18:05;7.20;99.90
59961;DHT22;55902;-37.980;-63.602;2023-08-21T00:20:32;7.20;99.90
59961;DHT22;55902;-37.980;-63.602;2023-08-21T00:22:59;7.10;99.90
59961;DHT22;55902;-37.980;-63.602;2023-08-21T00:25:26;7.10;99.90
59961;DHT22;55902;-37.980;-63.602;2023-08-21T00:27:53;7.10;99.90
59961;DHT22;55902;-37.980;-63.602;2023-08-21T00:30:20;7.00;99.90
59961;DHT22;55902;-37.980;-63.602;2023-08-21T00:32:47;7.10;99.90
59961;DHT22;55902;-37.980;-63.602;2023-08-21T00:35:14;7.10;99.90
59961;DHT22;55902;-37.980;-63.602;2023-08-21T00:37:41;7.00;99.90
59961;DHT22;55902;-37.980;-63.602;2023-08-21T00:40:12;7.00;99.90
59961;DHT22;55902;-37.980;-63.602;2023-08-21T00:42:39;7.00;99.90
59961;DHT22;55902;-37.980;-63.602;2023-08-21T00:45:09;7.00;99.90
59961;DHT22;55902;-37.980;-63.602;2023-08-21T00:47:37;7.00;99.90
59961;DHT22;55902;-37.980;-63.602;2023-08-21T00:50:06;6.90;99.90
59961;DHT22;55902;-37.980;-63.602;2023-08-21T00:52:39;6.90;99.90
59961;DHT22;55902;-37.980;-63.602;2023-08-21T00:55:07;6.90;99.90
59961;DHT22;55902;-37.980;-63.602;2023-08-21T00:57:36;6.90;99.90
59961;DHT22;55902;-37.980;-63.602;2023-08-21T01:00:04;6.90;99.90
59961;DHT22;55902;-37.980;-63.602;2023-08-21T01:02:34;6.90;99.90
59961;DHT22;55902;-37.980;-63.602;2023-08-21T01:05:01;6.90;99.90
59961;DHT22;55902;-37.980;-63.602;2023-08-21T01:17:38;6.90;99.90
59961;DHT22;55902;-37.980;-63.602;2023-08-21T01:20:07;6.90;99.90
59961;DHT22;55902;-37.980;-63.602;2023-08-21T01:22:40;6.80;99.90
59961;DHT22;55902;-37.980;-63.602;2023-08-21T01:25:08;6.80;99.90
59961;DHT22;55902;-37.980;-63.602;2023-08-21T01:27:36;6.80;99.90
59961;DHT22;55902;-37.980;-63.602;2023-08-21T01:30:04;6.80;99.90
59961;DHT22;55902;-37.980;-63.602;2023-08-21T01:35:10;6.80;99.90
59961;DHT22;55902;-37.980;-63.602;2023-08-21T01:37:38;6.80;99.90
59961;DHT22;55902;-37.980;-63.602;2023-08-21T01:40:06;6.80;99.90
59961;DHT22;55902;-37.980;-63.602;2023-08-21T01:42:33;6.80;99.90
59961;DHT22;55902;-37.980;-63.602;2023-08-21T01:45:00;6.80;99.90
59961;DHT22;55902;-37.980;-63.602;2023-08-21T01:47:27;6.80;99.90
59961;DHT22;55902;-37.980;-63.602;2023-08-21T01:49:54;6.80;99.90
59961;DHT22;55902;-37.980;-63.602;2023-08-21T01:52:21;6.80;99.90
59961;DHT22;55902;-37.980;-63.602;2023-08-21T01:54:50;6.80;99.90
59961;DHT22;55902;-37.980;-63.602;2023-08-21T01:57:20;6.80;99.90
59961;DHT22;55902;-37.980;-63.602;2023-08-21T01:59:47;6.80;99.90
59961;DHT22;55902;-37.980;-63.602;2023-08-21T02:02:14;6.80;99.90
59961;DHT22;55902;-37.980;-63.602;2023-08-21T02:04:41;6.80;99.90
59961;DHT22;55902;-37.980;-63.602;2023-08-21T02:07:11;6.70;99.90
59961;DHT22;55902;-37.980;-63.602;2023-08-21T02:09:38;6.70;99.90
59961;DHT22;55902;-37.980;-63.602;2023-08-21T02:12:08;6.70;99.90
59961;DHT22;55902;-37.980;-63.602;2023-08-21T02:14:36;6.70;99.90
59961;DHT22;55902;-37.980;-63.602;2023-08-21T02:17:03;6.70;99.90
59961;DHT22;55902;-37.980;-63.602;2023-08-21T02:19:31;6.70;99.90
59961;DHT22;55902;-37.980;-63.602;2023-08-21T02:21:58;6.70;99.90
59961;DHT22;55902;-37.980;-63.602;2023-08-21T02:24:25;6.70;99.90
59961;DHT22;55902;-37.980;-63.602;2023-08-21T02:26:55;6.70;99.90
59961;DHT22;55902;-37.980;-63.602;2023-08-21T02:29:22;6.70;99.90
59961;DHT22;55902;-37.980;-63.602;2023-08-21T02:31:49;6.70;99.90
59961;DHT22;55902;-37.980;-63.602;2023-08-21T02:34:16;6.70;99.90
59961;DHT22;55902;-37.980;-63.602;2023-08-21T02:36:43;6.70;99.90
59961;DHT22;55902;-37.980;-63.602;2023-08-21T02:39:10;6.80;99.90
59961;DHT22;55902;-37.980;-63.602;2023-08-21T02:41:41;6.80;99.90
59961;DHT22;55902;-37.980;-63.602;2023-08-21T02:44:08;6.80;99.90
59961;DHT22;55902;-37.980;-63.602;2023-08-21T02:46:34;6.80;99.90
59961;DHT22;55902;-37.980;-63.602;2023-08-21T02:49:02;6.80;99.90
59961;DHT22;55902;-37.980;-63.602;2023-08-21T02:51:29;6.80;99.90
59961;DHT22;55902;-37.980;-63.602;2023-08-21T02:53:57;6.80;99.90
59961;DHT22;55902;-37.980;-63.602;2023-08-21T02:56:23;6.80;99.90
59961;DHT22;55902;-37.980;-63.602;2023-08-21T02:58:50;6.70;99.90
59961;DHT22;55902;-37.980;-63.602;2023-08-21T03:01:17;6.80;99.90
59961;DHT22;55902;-37.980;-63.602;2023-08-21T03:03:44;6.80;99.90
59961;DHT22;55902;-37.980;-63.602;2023-08-21T03:06:15;6.70;99.90
59961;DHT22;55902;-37.980;-63.602;2023-08-21T03:08:42;6.80;99.90
59961;DHT22;55902;-37.980;-63.602;2023-08-21T03:11:10;6.70;99.90
59961;DHT22;55902;-37.980;-63.602;2023-08-21T03:13:37;6.80;99.90
59961;DHT22;55902;-37.980;-63.602;2023-08-21T03:16:04;6.80;99.90
59961;DHT22;55902;-37.980;-63.602;2023-08-21T03:18:34;6.80;99.90
59961;DHT22;55902;-37.980;-63.602;2023-08-21T03:21:01;6.70;99.90
59961;DHT22;55902;-37.980;-63.602;2023-08-21T03:23:31;6.70;99.90
59961;DHT22;55902;-37.980;-63.602;2023-08-21T03:25:59;6.70;99.90
59961;DHT22;55902;-37.980;-63.602;2023-08-21T03:28:26;6.80;99.90
59961;DHT22;55902;-37.980;-63.602;2023-08-21T03:30:53;6.80;99.90
59961;DHT22;55902;-37.980;-63.602;2023-08-21T03:33:20;6.80;99.90
59961;DHT22;55902;-37.980;-63.602;2023-08-21T03:35:52;6.70;99.90
59961;DHT22;55902;-37.980;-63.602;2023-08-21T03:38:23;6.70;99.90
59961;DHT22;55902;-37.980;-63.602;2023-08-21T03:40:50;6.70;99.90
59961;DHT22;55902;-37.980;-63.602;2023-08-21T03:43:17;6.70;99.90
59961;DHT22;55902;-37.980;-63.602;2023-08-21T03:45:47;6.70;99.90
59961;DHT22;55902;-37.980;-63.602;2023-08-21T03:48:14;6.70;99.90
59961;DHT22;55902;-37.980;-63.602;2023-08-21T03:50:41;6.80;99.90
59961;DHT22;55902;-37.980;-63.602;2023-08-21T03:53:08;6.70;99.90
59961;DHT22;55902;-37.980;-63.602;2023-08-21T03:55:35;6.70;99.90
59961;DHT22;55902;-37.980;-63.602;2023-08-21T03:58:05;6.80;99.90
59961;DHT22;55902;-37.980;-63.602;2023-08-21T04:00:34;6.80;99.90
59961;DHT22;55902;-37.980;-63.602;2023-08-21T04:03:02;6.80;99.90
59961;DHT22;55902;-37.980;-63.602;2023-08-21T04:05:29;6.70;99.90
59961;DHT22;55902;-37.980;-63.602;2023-08-21T04:07:56;6.80;99.90
59961;DHT22;55902;-37.980;-63.602;2023-08-21T04:10:24;6.70;99.90
59961;DHT22;55902;-37.980;-63.602;2023-08-21T04:12:55;6.70;99.90
59961;DHT22;55902;-37.980;-63.602;2023-08-21T04:15:26;6.70;99.90
59961;DHT22;55902;-37.980;-63.602;2023-08-21T04:17:53;6.70;99.90
59961;DHT22;55902;-37.980;-63.602;2023-08-21T04:34:45;6.60;99.90
59961;DHT22;55902;-37.980;-63.602;2023-08-21T04:37:13;6.50;99.90
59961;DHT22;55902;-37.980;-63.602;2023-08-21T04:39:40;6.50;99.90
59961;DHT22;55902;-37.980;-63.602;2023-08-21T04:42:07;6.50;99.90
59961;DHT22;55902;-37.980;-63.602;2023-08-21T04:44:33;6.50;99.90
59961;DHT22;55902;-37.980;-63.602;2023-08-21T04:47:22;6.40;99.90
59961;DHT22;55902;-37.980;-63.602;2023-08-21T04:49:50;6.40;99.90
59961;DHT22;55902;-37.980;-63.602;2023-08-21T04:52:17;6.40;99.90
59961;DHT22;55902;-37.980;-63.602;2023-08-21T04:54:46;6.40;99.90
59961;DHT22;55902;-37.980;-63.602;2023-08-21T04:57:13;6.40;99.90
59961;DHT22;55902;-37.980;-63.602;2023-08-21T04:59:40;6.40;99.90
59961;DHT22;55902;-37.980;-63.602;2023-08-21T05:02:10;6.30;99.90
59961;DHT22;55902;-37.980;-63.602;2023-08-21T05:04:37;6.40;99.90
59961;DHT22;55902;-37.980;-63.602;2023-08-21T05:07:05;6.30;99.90
59961;DHT22;55902;-37.980;-63.602;2023-08-21T05:09:32;6.30;99.90
59961;DHT22;55902;-37.980;-63.602;2023-08-21T05:12:03;6.30;99.90
59961;DHT22;55902;-37.980;-63.602;2023-08-21T05:14:30;6.20;99.90
59961;DHT22;55902;-37.980;-63.602;2023-08-21T05:16:57;6.20;99.90
59961;DHT22;55902;-37.980;-63.602;2023-08-21T05:19:25;6.20;99.90
59961;DHT22;55902;-37.980;-63.602;2023-08-21T05:21:52;6.20;99.90
59961;DHT22;55902;-37.980;-63.602;2023-08-21T05:27:43;6.10;99.90
59961;DHT22;55902;-37.980;-63.602;2023-08-21T05:30:10;6.10;99.90
59961;DHT22;55902;-37.980;-63.602;2023-08-21T05:32:39;6.10;99.90
59961;DHT22;55902;-37.980;-63.602;2023-08-21T05:38:46;6.10;99.90
59961;DHT22;55902;-37.980;-63.602;2023-08-21T05:41:15;6.10;99.90
59961;DHT22;55902;-37.980;-63.602;2023-08-21T05:43:42;6.10;99.90
59961;DHT22;55902;-37.980;-63.602;2023-08-21T05:46:12;6.10;99.90
59961;DHT22;55902;-37.980;-63.602;2023-08-21T05:48:38;6.10;99.90
59961;DHT22;55902;-37.980;-63.602;2023-08-21T05:51:05;6.00;99.90
59961;DHT22;55902;-37.980;-63.602;2023-08-21T05:53:33;6.10;99.90
59961;DHT22;55902;-37.980;-63.602;2023-08-21T05:56:00;6.10;99.90
59961;DHT22;55902;-37.980;-63.602;2023-08-21T05:58:27;6.10;99.90
59961;DHT22;55902;-37.980;-63.602;2023-08-21T06:00:58;6.20;99.90
59961;DHT22;55902;-37.980;-63.602;2023-08-21T06:03:25;6.20;99.90
59961;DHT22;55902;-37.980;-63.602;2023-08-21T06:05:52;6.20;99.90
59961;DHT22;55902;-37.980;-63.602;2023-08-21T06:08:19;6.20;99.90
59961;DHT22;55902;-37.980;-63.602;2023-08-21T06:10:50;6.20;99.90
59961;DHT22;55902;-37.980;-63.602;2023-08-21T06:13:17;6.20;99.90
59961;DHT22;55902;-37.980;-63.602;2023-08-21T06:15:44;6.20;99.90
59961;DHT22;55902;-37.980;-63.602;2023-08-21T06:18:11;6.20;99.90
59961;DHT22;55902;-37.980;-63.602;2023-08-21T06:20:38;6.20;99.90
59961;DHT22;55902;-37.980;-63.602;2023-08-21T06:23:05;6.20;99.90
59961;DHT22;55902;-37.980;-63.602;2023-08-21T06:25:33;6.20;99.90
59961;DHT22;55902;-37.980;-63.602;2023-08-21T06:28:00;6.20;99.90
59961;DHT22;55902;-37.980;-63.602;2023-08-21T06:30:27;6.10;99.90
59961;DHT22;55902;-37.980;-63.602;2023-08-21T06:32:55;6.10;99.90
59961;DHT22;55902;-37.980;-63.602;2023-08-21T06:35:22;6.10;99.90
59961;DHT22;55902;-37.980;-63.602;2023-08-21T06:37:49;6.10;99.90
59961;DHT22;55902;-37.980;-63.602;2023-08-21T06:40:16;6.00;99.90
59961;DHT22;55902;-37.980;-63.602;2023-08-21T06:42:43;6.10;99.90
59961;DHT22;55902;-37.980;-63.602;2023-08-21T06:45:10;6.00;99.90
59961;DHT22;55902;-37.980;-63.602;2023-08-21T06:47:37;6.10;99.90
59961;DHT22;55902;-37.980;-63.602;2023-08-21T06:50:06;6.00;99.90
59961;DHT22;55902;-37.980;-63.602;2023-08-21T06:52:34;6.00;99.90
59961;DHT22;55902;-37.980;-63.602;2023-08-21T06:55:01;6.00;99.90
59961;DHT22;55902;-37.980;-63.602;2023-08-21T06:57:28;6.00;99.90
59961;DHT22;55902;-37.980;-63.602;2023-08-21T07:10:00;6.00;99.90
59961;DHT22;55902;-37.980;-63.602;2023-08-21T07:12:27;6.00;99.90
59961;DHT22;55902;-37.980;-63.602;2023-08-21T07:14:55;6.00;99.90
59961;DHT22;55902;-37.980;-63.602;2023-08-21T07:17:22;6.00;99.90
59961;DHT22;55902;-37.980;-63.602;2023-08-21T07:19:49;6.00;99.90
59961;DHT22;55902;-37.980;-63.602;2023-08-21T07:22:19;6.00;99.90
59961;DHT22;55902;-37.980;-63.602;2023-08-21T07:24:47;6.00;99.90
59961;DHT22;55902;-37.980;-63.602;2023-08-21T07:27:14;6.00;99.90
59961;DHT22;55902;-37.980;-63.602;2023-08-21T07:29:43;6.00;99.90
59961;DHT22;55902;-37.980;-63.602;2023-08-21T07:32:09;6.10;99.90
59961;DHT22;55902;-37.980;-63.602;2023-08-21T07:34:36;6.10;99.90
59961;DHT22;55902;-37.980;-63.602;2023-08-21T07:37:04;6.00;99.90
59961;DHT22;55902;-37.980;-63.602;2023-08-21T07:39:31;6.00;99.90
59961;DHT22;55902;-37.980;-63.602;2023-08-21T07:41:58;6.00;99.90
59961;DHT22;55902;-37.980;-63.602;2023-08-21T07:44:25;6.00;99.90
59961;DHT22;55902;-37.980;-63.602;2023-08-21T07:46:52;6.00;99.90
59961;DHT22;55902;-37.980;-63.602;2023-08-21T07:49:19;6.00;99.90
59961;DHT22;55902;-37.980;-63.602;2023-08-21T07:51:46;6.00;99.90
59961;DHT22;55902;-37.980;-63.602;2023-08-21T07:54:13;6.10;99.90
59961;DHT22;55902;-37.980;-63.602;2023-08-21T07:56:40;6.10;99.90
59961;DHT22;55902;-37.980;-63.602;2023-08-21T07:59:10;6.10;99.90
59961;DHT22;55902;-37.980;-63.602;2023-08-21T08:01:37;6.20;99.90
59961;DHT22;55902;-37.980;-63.602;2023-08-21T08:04:04;6.20;99.90
59961;DHT22;55902;-37.980;-63.602;2023-08-21T08:06:32;6.30;99.90
59961;DHT22;55902;-37.980;-63.602;2023-08-21T08:09:00;6.30;99.90
59961;DHT22;55902;-37.980;-63.602;2023-08-21T08:11:27;6.30;99.90
59961;DHT22;55902;-37.980;-63.602;2023-08-21T08:13:55;6.30;99.90
59961;DHT22;55902;-37.980;-63.602;2023-08-21T08:16:22;6.30;99.90
59961;DHT22;55902;-37.980;-63.602;2023-08-21T08:18:49;6.30;99.90
59961;DHT22;55902;-37.980;-63.602;2023-08-21T08:21:16;6.30;99.90
59961;DHT22;55902;-37.980;-63.602;2023-08-21T08:23:44;6.40;99.90
59961;DHT22;55902;-37.980;-63.602;2023-08-21T08:26:11;6.40;99.90
59961;DHT22;55902;-37.980;-63.602;2023-08-21T08:28:38;6.40;99.90
59961;DHT22;55902;-37.980;-63.602;2023-08-21T08:31:05;6.40;99.90
59961;DHT22;55902;-37.980;-63.602;2023-08-21T08:33:32;6.40;99.90
59961;DHT22;55902;-37.980;-63.602;2023-08-21T08:35:59;6.40;99.90
59961;DHT22;55902;-37.980;-63.602;2023-08-21T08:38:26;6.50;99.90
59961;DHT22;55902;-37.980;-63.602;2023-08-21T08:40:55;6.40;99.90
59961;DHT22;55902;-37.980;-63.602;2023-08-21T08:43:25;6.40;99.90
59961;DHT22;55902;-37.980;-63.602;2023-08-21T08:45:57;6.50;99.90
59961;DHT22;55902;-37.980;-63.602;2023-08-21T08:48:25;6.40;99.90
59961;DHT22;55902;-37.980;-63.602;2023-08-21T08:50:53;6.40;99.90
59961;DHT22;55902;-37.980;-63.602;2023-08-21T08:53:20;6.40;99.90
59961;DHT22;55902;-37.980;-63.602;2023-08-21T08:55:49;6.40;99.90
59961;DHT22;55902;-37.980;-63.602;2023-08-21T08:58:16;6.40;99.90
59961;DHT22;55902;-37.980;-63.602;2023-08-21T09:00:43;6.40;99.90
59961;DHT22;55902;-37.980;-63.602;2023-08-21T09:03:10;6.40;99.90
59961;DHT22;55902;-37.980;-63.602;2023-08-21T09:05:42;6.40;99.90
59961;DHT22;55902;-37.980;-63.602;2023-08-21T09:08:09;6.40;99.90
59961;DHT22;55902;-37.980;-63.602;2023-08-21T09:10:42;6.40;99.90
59961;DHT22;55902;-37.980;-63.602;2023-08-21T09:13:17;6.50;99.90
59961;DHT22;55902;-37.980;-63.602;2023-08-21T09:15:52;6.40;99.90
59961;DHT22;55902;-37.980;-63.602;2023-08-21T09:18:19;6.40;99.90
59961;DHT22;55902;-37.980;-63.602;2023-08-21T09:20:47;6.50;99.90
59961;DHT22;55902;-37.980;-63.602;2023-08-21T09:23:15;6.40;99.90
59961;DHT22;55902;-37.980;-63.602;2023-08-21T09:25:45;6.50;99.90
59961;DHT22;55902;-37.980;-63.602;2023-08-21T09:28:19;6.50;99.90
59961;DHT22;55902;-37.980;-63.602;2023-08-21T09:34:11;6.50;99.90
59961;DHT22;55902;-37.980;-63.602;2023-08-21T09:36:39;6.50;99.90
59961;DHT22;55902;-37.980;-63.602;2023-08-21T09:53:31;6.50;99.90
59961;DHT22;55902;-37.980;-63.602;2023-08-21T09:56:01;6.50;99.90
59961;DHT22;55902;-37.980;-63.602;2023-08-21T09:58:31;6.50;99.90
59961;DHT22;55902;-37.980;-63.602;2023-08-21T10:00:59;6.50;99.90
59961;DHT22;55902;-37.980;-63.602;2023-08-21T10:03:27;6.50;99.90
59961;DHT22;55902;-37.980;-63.602;2023-08-21T10:05:56;6.60;99.90
59961;DHT22;55902;-37.980;-63.602;2023-08-21T10:08:25;6.50;99.90
59961;DHT22;55902;-37.980;-63.602;2023-08-21T10:10:52;6.50;99.90
59961;DHT22;55902;-37.980;-63.602;2023-08-21T10:13:21;6.50;99.90
59961;DHT22;55902;-37.980;-63.602;2023-08-21T10:15:49;6.50;99.90
59961;DHT22;55902;-37.980;-63.602;2023-08-21T10:18:29;6.50;99.90
59961;DHT22;55902;-37.980;-63.602;2023-08-21T10:21:17;6.50;99.90
59961;DHT22;55902;-37.980;-63.602;2023-08-21T10:23:49;6.50;99.90
59961;DHT22;55902;-37.980;-63.602;2023-08-21T10:26:19;6.50;99.90
59961;DHT22;55902;-37.980;-63.602;2023-08-21T10:31:41;6.50;99.90
59961;DHT22;55902;-37.980;-63.602;2023-08-21T10:34:11;6.50;99.90
59961;DHT22;55902;-37.980;-63.602;2023-08-21T10:45:13;6.60;99.90
59961;DHT22;55902;-37.980;-63.602;2023-08-21T10:47:41;6.70;99.90
59961;DHT22;55902;-37.980;-63.602;2023-08-21T10:50:09;6.60;99.90
59961;DHT22;55902;-37.980;-63.602;2023-08-21T10:52:42;6.70;99.90
59961;DHT22;55902;-37.980;-63.602;2023-08-21T11:14:04;6.90;99.90
59961;DHT22;55902;-37.980;-63.602;2023-08-21T11:16:32;6.90;99.90
59961;DHT22;55902;-37.980;-63.602;2023-08-21T11:19:04;7.00;99.90
59961;DHT22;55902;-37.980;-63.602;2023-08-21T11:21:31;7.10;99.90
59961;DHT22;55902;-37.980;-63.602;2023-08-21T11:24:02;7.20;99.90
59961;DHT22;55902;-37.980;-63.602;2023-08-21T11:26:29;7.20;99.90
59961;DHT22;55902;-37.980;-63.602;2023-08-21T11:28:56;7.30;99.90
59961;DHT22;55902;-37.980;-63.602;2023-08-21T11:31:27;7.40;99.90
59961;DHT22;55902;-37.980;-63.602;2023-08-21T11:33:55;7.50;99.90
59961;DHT22;55902;-37.980;-63.602;2023-08-21T11:36:22;7.50;99.90
59961;DHT22;55902;-37.980;-63.602;2023-08-21T11:38:59;7.60;99.90
59961;DHT22;55902;-37.980;-63.602;2023-08-21T11:41:26;7.60;99.90
59961;DHT22;55902;-37.980;-63.602;2023-08-21T11:43:57;7.70;99.90
59961;DHT22;55902;-37.980;-63.602;2023-08-21T11:46:28;7.80;99.90
59961;DHT22;55902;-37.980;-63.602;2023-08-21T11:48:55;7.80;99.90
59961;DHT22;55902;-37.980;-63.602;2023-08-21T11:51:22;7.80;99.90
59961;DHT22;55902;-37.980;-63.602;2023-08-21T11:53:49;7.80;99.90
59961;DHT22;55902;-37.980;-63.602;2023-08-21T11:56:17;7.90;99.90
59961;DHT22;55902;-37.980;-63.602;2023-08-21T11:58:46;7.90;99.90
59961;DHT22;55902;-37.980;-63.602;2023-08-21T12:01:20;7.90;99.90
59961;DHT22;55902;-37.980;-63.602;2023-08-21T12:03:48;7.90;99.90
59961;DHT22;55902;-37.980;-63.602;2023-08-21T12:06:23;7.90;99.90
59961;DHT22;55902;-37.980;-63.602;2023-08-21T12:08:54;7.90;99.90
59961;DHT22;55902;-37.980;-63.602;2023-08-21T12:11:21;8.00;99.90
59961;DHT22;55902;-37.980;-63.602;2023-08-21T12:13:48;8.00;99.90
59961;DHT22;55902;-37.980;-63.602;2023-08-21T12:16:15;8.00;99.90
59961;DHT22;55902;-37.980;-63.602;2023-08-21T12:18:42;8.00;99.90
59961;DHT22;55902;-37.980;-63.602;2023-08-21T12:21:09;8.00;99.90
59961;DHT22;55902;-37.980;-63.602;2023-08-21T12:23:36;8.00;99.90
59961;DHT22;55902;-37.980;-63.602;2023-08-21T12:26:03;8.10;99.90
59961;DHT22;55902;-37.980;-63.602;2023-08-21T12:28:30;8.10;99.90
59961;DHT22;55902;-37.980;-63.602;2023-08-21T12:30:57;8.10;99.90
59961;DHT22;55902;-37.980;-63.602;2023-08-21T12:33:24;8.10;99.90
59961;DHT22;55902;-37.980;-63.602;2023-08-21T12:45:58;8.20;99.90
59961;DHT22;55902;-37.980;-63.602;2023-08-21T12:48:25;8.20;99.90
59961;DHT22;55902;-37.980;-63.602;2023-08-21T12:50:52;8.20;99.90
59961;DHT22;55902;-37.980;-63.602;2023-08-21T12:53:19;8.20;99.90
59961;DHT22;55902;-37.980;-63.602;2023-08-21T12:55:47;8.20;99.90
59961;DHT22;55902;-37.980;-63.602;2023-08-21T12:58:15;8.20;99.90
59961;DHT22;55902;-37.980;-63.602;2023-08-21T13:00:42;8.30;99.90
59961;DHT22;55902;-37.980;-63.602;2023-08-21T13:03:09;8.30;99.90
59961;DHT22;55902;-37.980;-63.602;2023-08-21T13:05:39;8.30;99.90
59961;DHT22;55902;-37.980;-63.602;2023-08-21T13:08:06;8.40;99.90
59961;DHT22;55902;-37.980;-63.602;2023-08-21T13:10:33;8.40;99.90
59961;DHT22;55902;-37.980;-63.602;2023-08-21T13:13:04;8.40;99.90
59961;DHT22;55902;-37.980;-63.602;2023-08-21T13:15:31;8.50;99.90
59961;DHT22;55902;-37.980;-63.602;2023-08-21T13:17:58;8.50;99.90
59961;DHT22;55902;-37.980;-63.602;2023-08-21T13:20:25;8.50;99.90
59961;DHT22;55902;-37.980;-63.602;2023-08-21T13:22:52;8.50;99.90
59961;DHT22;55902;-37.980;-63.602;2023-08-21T13:25:23;8.50;99.90
59961;DHT22;55902;-37.980;-63.602;2023-08-21T13:27:53;8.50;99.90
59961;DHT22;55902;-37.980;-63.602;2023-08-21T13:30:24;8.60;99.90
59961;DHT22;55902;-37.980;-63.602;2023-08-21T13:32:51;8.60;99.90
59961;DHT22;55902;-37.980;-63.602;2023-08-21T13:35:18;8.70;99.90
59961;DHT22;55902;-37.980;-63.602;2023-08-21T13:37:47;8.70;99.90
59961;DHT22;55902;-37.980;-63.602;2023-08-21T13:40:14;8.80;99.90
59961;DHT22;55902;-37.980;-63.602;2023-08-21T13:42:44;8.90;99.90
59961;DHT22;55902;-37.980;-63.602;2023-08-21T13:45:13;8.90;99.90
59961;DHT22;55902;-37.980;-63.602;2023-08-21T13:51:02;8.90;99.90
59961;DHT22;55902;-37.980;-63.602;2023-08-21T13:53:29;9.00;99.90
59961;DHT22;55902;-37.980;-63.602;2023-08-21T13:55:57;8.90;99.90
59961;DHT22;55902;-37.980;-63.602;2023-08-21T13:58:26;9.00;99.90
59961;DHT22;55902;-37.980;-63.602;2023-08-21T14:00:54;9.10;99.90
59961;DHT22;55902;-37.980;-63.602;2023-08-21T14:03:24;9.00;99.90
59961;DHT22;55902;-37.980;-63.602;2023-08-21T14:05:52;9.10;99.90
59961;DHT22;55902;-37.980;-63.602;2023-08-21T14:08:19;9.10;99.90
59961;DHT22;55902;-37.980;-63.602;2023-08-21T14:10:46;9.20;99.90
59961;DHT22;55902;-37.980;-63.602;2023-08-21T14:13:13;9.20;99.90
59961;DHT22;55902;-37.980;-63.602;2023-08-21T14:15:40;9.20;99.90
59961;DHT22;55902;-37.980;-63.602;2023-08-21T14:18:08;9.30;99.90
59961;DHT22;55902;-37.980;-63.602;2023-08-21T14:20:37;9.30;99.90
59961;DHT22;55902;-37.980;-63.602;2023-08-21T14:23:05;9.40;99.90
59961;DHT22;55902;-37.980;-63.602;2023-08-21T14:25:33;9.60;99.90
59961;DHT22;55902;-37.980;-63.602;2023-08-21T14:28:03;9.70;99.90
59961;DHT22;55902;-37.980;-63.602;2023-08-21T14:30:31;9.80;99.90
59961;DHT22;55902;-37.980;-63.602;2023-08-21T14:32:58;9.90;99.90
59961;DHT22;55902;-37.980;-63.602;2023-08-21T14:35:28;9.90;99.90
59961;DHT22;55902;-37.980;-63.602;2023-08-21T14:37:55;9.90;99.90
59961;DHT22;55902;-37.980;-63.602;2023-08-21T14:40:22;9.80;99.90
59961;DHT22;55902;-37.980;-63.602;2023-08-21T14:42:49;9.80;99.90
59961;DHT22;55902;-37.980;-63.602;2023-08-21T14:45:20;9.80;99.90
59961;DHT22;55902;-37.980;-63.602;2023-08-21T14:47:47;9.70;99.90
59961;DHT22;55902;-37.980;-63.602;2023-08-21T14:50:14;9.70;99.90
59961;DHT22;55902;-37.980;-63.602;2023-08-21T14:52:41;9.80;99.90
59961;DHT22;55902;-37.980;-63.602;2023-08-21T14:55:09;9.80;99.90
59961;DHT22;55902;-37.980;-63.602;2023-08-21T14:57:39;9.90;99.90
59961;DHT22;55902;-37.980;-63.602;2023-08-21T15:00:07;9.90;99.90
59961;DHT22;55902;-37.980;-63.602;2023-08-21T15:02:37;10.10;99.90
59961;DHT22;55902;-37.980;-63.602;2023-08-21T15:05:04;10.10;99.90
59961;DHT22;55902;-37.980;-63.602;2023-08-21T15:17:57;10.30;99.90
59961;DHT22;55902;-37.980;-63.602;2023-08-21T15:20:25;10.30;99.90
59961;DHT22;55902;-37.980;-63.602;2023-08-21T15:22:52;10.30;99.90
59961;DHT22;55902;-37.980;-63.602;2023-08-21T15:25:19;10.30;99.90
59961;DHT22;55902;-37.980;-63.602;2023-08-21T15:27:46;10.40;99.90
59961;DHT22;55902;-37.980;-63.602;2023-08-21T15:30:14;10.50;99.90
59961;DHT22;55902;-37.980;-63.602;2023-08-21T15:32:43;10.50;99.90
59961;DHT22;55902;-37.980;-63.602;2023-08-21T15:35:11;10.60;99.90
59961;DHT22;55902;-37.980;-63.602;2023-08-21T15:37:38;10.70;99.90
59961;DHT22;55902;-37.980;-63.602;2023-08-21T15:40:07;10.70;99.90
59961;DHT22;55902;-37.980;-63.602;2023-08-21T15:42:35;10.70;99.90
59961;DHT22;55902;-37.980;-63.602;2023-08-21T15:45:02;10.60;99.90
59961;DHT22;55902;-37.980;-63.602;2023-08-21T15:47:32;10.50;99.90
59961;DHT22;55902;-37.980;-63.602;2023-08-21T15:49:59;10.60;99.90
59961;DHT22;55902;-37.980;-63.602;2023-08-21T15:52:26;10.60;99.90
59961;DHT22;55902;-37.980;-63.602;2023-08-21T15:54:54;10.60;99.90
59961;DHT22;55902;-37.980;-63.602;2023-08-21T15:57:24;10.60;99.90
59961;DHT22;55902;-37.980;-63.602;2023-08-21T15:59:55;10.50;99.90
59961;DHT22;55902;-37.980;-63.602;2023-08-21T16:02:22;10.50;99.90
59961;DHT22;55902;-37.980;-63.602;2023-08-21T16:04:49;10.40;99.90
59961;DHT22;55902;-37.980;-63.602;2023-08-21T16:07:16;10.30;99.90
59961;DHT22;55902;-37.980;-63.602;2023-08-21T16:09:46;10.30;99.90
59961;DHT22;55902;-37.980;-63.602;2023-08-21T16:12:13;10.30;99.90
59961;DHT22;55902;-37.980;-63.602;2023-08-21T16:14:40;10.30;99.90
59961;DHT22;55902;-37.980;-63.602;2023-08-21T16:17:07;10.40;99.90
59961;DHT22;55902;-37.980;-63.602;2023-08-21T16:19:34;10.40;99.90
59961;DHT22;55902;-37.980;-63.602;2023-08-21T16:22:03;10.30;99.90
59961;DHT22;55902;-37.980;-63.602;2023-08-21T16:24:30;10.30;99.90
59961;DHT22;55902;-37.980;-63.602;2023-08-21T16:26:59;10.30;99.90
59961;DHT22;55902;-37.980;-63.602;2023-08-21T16:29:27;10.30;99.90
59961;DHT22;55902;-37.980;-63.602;2023-08-21T16:31:54;10.30;99.90
59961;DHT22;55902;-37.980;-63.602;2023-08-21T16:34:21;10.40;99.90
59961;DHT22;55902;-37.980;-63.602;2023-08-21T16:36:48;10.40;99.90
59961;DHT22;55902;-37.980;-63.602;2023-08-21T16:39:15;10.50;99.90
59961;DHT22;55902;-37.980;-63.602;2023-08-21T16:41:42;10.60;99.90
59961;DHT22;55902;-37.980;-63.602;2023-08-21T16:44:09;10.50;99.90
59961;DHT22;55902;-37.980;-63.602;2023-08-21T16:46:36;10.60;99.90
59961;DHT22;55902;-37.980;-63.602;2023-08-21T16:49:06;10.60;99.90
59961;DHT22;55902;-37.980;-63.602;2023-08-21T16:51:33;10.70;99.90
59961;DHT22;55902;-37.980;-63.602;2023-08-21T16:54:00;10.70;99.90
59961;DHT22;55902;-37.980;-63.602;2023-08-21T16:56:29;10.70;99.90
59961;DHT22;55902;-37.980;-63.602;2023-08-21T16:58:56;10.70;99.90
59961;DHT22;55902;-37.980;-63.602;2023-08-21T17:01:23;10.70;99.90